Time;durP1;ratioP1;P1;durP2;ratioP2;P2;SDS_P1;SDS_P2;PMS_P1;PMS_P2;Temp;Humidity;BMP_temperature;BMP_pressure;BME280_temperature;BME280_humidity;BME280_pressure;Samples;Min_cycle;Max_cycle;Signal;HPM_P1;HPM_P2
2021/10/20 00:01:54;;;;;;;310.37;291.90;;;13.60;99.90;;;;;;5017156;28;20170;-80
2021/10/20 00:04:20;;;;;;;340.13;320.27;;;13.60;99.90;;;;;;5016906;28;20193;-80
2021/10/20 00:06:46;;;;;;;311.30;292.27;;;13.60;99.90;;;;;;5018195;28;20594;-80
2021/10/20 00:09:11;;;;;;;341.00;321.67;;;13.60;99.90;;;;;;5018013;28;20190;-80
2021/10/20 00:11:38;;;;;;;304.13;285.90;;;13.60;99.90;;;;;;5018301;28;20193;-79
2021/10/20 00:14:03;;;;;;;214.30;199.07;;;13.60;99.90;;;;;;5018023;28;20555;-80
2021/10/20 00:16:29;;;;;;;208.87;193.57;;;13.60;99.90;;;;;;5016717;28;20416;-80
2021/10/20 00:18:56;;;;;;;145.70;132.90;;;13.60;99.90;;;;;;5017401;28;20468;-80
2021/10/20 00:21:27;;;;;;;216.13;200.83;;;13.60;99.90;;;;;;5017202;28;20177;-80
2021/10/20 00:23:54;;;;;;;191.90;177.37;;;13.50;99.90;;;;;;5016741;28;20405;-80
2021/10/20 00:26:20;;;;;;;181.93;167.87;;;13.40;99.90;;;;;;5087704;22;20498;-82
2021/10/20 00:28:46;;;;;;;164.73;151.33;;;13.40;99.90;;;;;;5038709;28;20427;-82
2021/10/20 00:31:11;;;;;;;154.27;141.00;;;13.40;99.90;;;;;;5040713;28;20450;-80
2021/10/20 00:33:37;;;;;;;187.93;172.83;;;13.40;99.90;;;;;;5040140;28;20172;-80
2021/10/20 00:36:03;;;;;;;215.00;199.57;;;13.30;99.90;;;;;;5040246;28;20165;-80
2021/10/20 00:38:29;;;;;;;237.23;221.13;;;13.30;99.90;;;;;;5039657;28;20245;-80
2021/10/20 00:40:54;;;;;;;228.47;211.93;;;13.30;99.90;;;;;;5041438;28;20411;-80
2021/10/20 00:43:22;;;;;;;177.77;163.77;;;13.20;99.90;;;;;;5040597;28;20219;-80
2021/10/20 00:45:48;;;;;;;251.73;234.60;;;13.20;99.90;;;;;;5040347;28;20157;-80
2021/10/20 00:48:14;;;;;;;221.17;205.63;;;13.20;99.90;;;;;;5037333;28;20415;-80
2021/10/20 00:50:40;;;;;;;281.90;264.03;;;13.10;99.90;;;;;;5037434;28;20404;-80
2021/10/20 00:53:06;;;;;;;283.30;265.47;;;13.10;99.90;;;;;;5040342;28;20166;-80
2021/10/20 00:55:32;;;;;;;301.27;282.97;;;13.10;99.90;;;;;;5037762;28;20234;-80
2021/10/20 00:57:58;;;;;;;335.67;315.57;;;13.10;99.90;;;;;;5036831;28;20197;-81
2021/10/20 01:00:23;;;;;;;298.67;280.20;;;13.10;99.90;;;;;;5038113;28;20400;-80
2021/10/20 01:02:49;;;;;;;335.30;315.77;;;13.10;99.90;;;;;;5039995;28;20428;-80
2021/10/20 01:05:15;;;;;;;332.13;312.73;;;13.10;99.90;;;;;;5036704;28;20591;-80
2021/10/20 01:07:41;;;;;;;324.50;304.60;;;13.10;99.90;;;;;;5039673;28;20660;-80
2021/10/20 01:10:09;;;;;;;308.77;290.27;;;13.10;99.90;;;;;;5041086;28;20396;-80
2021/10/20 01:12:36;;;;;;;281.53;263.13;;;13.20;99.90;;;;;;5040942;28;20404;-80
2021/10/20 01:15:11;;;;;;;218.07;202.53;;;13.20;99.90;;;;;;5040005;28;20892;-81
2021/10/20 01:17:37;;;;;;;222.80;207.20;;;13.20;99.90;;;;;;5041067;28;20465;-80
2021/10/20 01:20:05;;;;;;;190.17;175.63;;;13.10;99.90;;;;;;5040608;28;20428;-80
2021/10/20 01:22:32;;;;;;;176.10;161.93;;;13.10;99.90;;;;;;5041334;28;20165;-80
2021/10/20 01:24:59;;;;;;;205.47;190.37;;;13.10;99.90;;;;;;5040122;28;20454;-80
2021/10/20 01:27:25;;;;;;;225.57;208.93;;;13.00;99.90;;;;;;5038515;28;20823;-80
2021/10/20 01:29:51;;;;;;;271.30;253.17;;;13.00;99.90;;;;;;5041237;28;20474;-81
2021/10/20 01:32:17;;;;;;;269.27;251.63;;;13.00;99.90;;;;;;5044417;28;20399;-81
2021/10/20 01:34:43;;;;;;;307.83;288.90;;;13.00;99.90;;;;;;5040964;28;20430;-81
2021/10/20 01:37:09;;;;;;;260.73;243.73;;;13.00;99.90;;;;;;5041118;28;20671;-81
2021/10/20 01:39:35;;;;;;;331.00;311.33;;;12.90;99.90;;;;;;5041674;28;20153;-81
2021/10/20 01:42:02;;;;;;;311.53;292.63;;;12.90;99.90;;;;;;5041385;28;20392;-81
2021/10/20 01:44:27;;;;;;;313.80;294.90;;;12.90;99.90;;;;;;5041100;28;20533;-81
2021/10/20 01:46:53;;;;;;;348.60;328.07;;;12.90;99.90;;;;;;5040221;28;20415;-81
2021/10/20 01:49:19;;;;;;;347.43;327.63;;;13.00;99.90;;;;;;5041471;28;20200;-80
2021/10/20 01:51:44;;;;;;;336.50;316.83;;;12.90;99.90;;;;;;5041039;28;20514;-81
2021/10/20 01:54:12;;;;;;;343.93;324.27;;;12.90;99.90;;;;;;5043682;28;20192;-80
2021/10/20 01:56:37;;;;;;;383.23;361.80;;;12.90;99.90;;;;;;5044020;28;20179;-81
2021/10/20 01:59:03;;;;;;;318.00;299.17;;;12.90;99.90;;;;;;5043700;28;20474;-81
2021/10/20 02:01:29;;;;;;;367.83;347.00;;;13.00;99.90;;;;;;5043344;28;20537;-81
2021/10/20 02:03:54;;;;;;;364.77;344.17;;;13.00;99.90;;;;;;5040827;28;20659;-80
2021/10/20 02:06:20;;;;;;;371.13;350.13;;;13.00;99.90;;;;;;5037728;28;20162;-81
2021/10/20 02:08:49;;;;;;;372.37;351.27;;;13.00;99.90;;;;;;5039492;28;20645;-80
2021/10/20 02:11:18;;;;;;;351.27;330.97;;;13.00;99.90;;;;;;5040770;28;20400;-80
2021/10/20 02:13:44;;;;;;;344.83;324.57;;;13.00;99.90;;;;;;5041423;28;20400;-80
2021/10/20 02:16:10;;;;;;;354.53;333.60;;;13.00;99.90;;;;;;5040691;28;20422;-80
2021/10/20 02:18:36;;;;;;;370.60;349.87;;;12.90;99.90;;;;;;5040058;28;20942;-80
2021/10/20 02:21:02;;;;;;;369.00;347.60;;;12.90;99.90;;;;;;5040887;28;20414;-81
2021/10/20 02:23:29;;;;;;;357.23;336.63;;;12.90;99.90;;;;;;5041197;28;20162;-80
2021/10/20 02:25:55;;;;;;;340.23;318.70;;;12.90;99.90;;;;;;5041159;28;20887;-80
2021/10/20 02:28:20;;;;;;;356.37;335.70;;;12.90;99.90;;;;;;5039382;28;20423;-80
2021/10/20 02:30:46;;;;;;;369.93;349.47;;;12.90;99.90;;;;;;5038049;28;20157;-80
2021/10/20 02:33:12;;;;;;;376.27;355.07;;;12.90;99.90;;;;;;5038189;28;20172;-80
2021/10/20 02:35:38;;;;;;;393.73;371.83;;;12.90;99.90;;;;;;5038196;28;20169;-80
2021/10/20 02:38:03;;;;;;;299.20;281.07;;;12.90;99.90;;;;;;5038867;28;20612;-80
2021/10/20 02:40:29;;;;;;;318.80;299.53;;;12.90;99.90;;;;;;5038227;28;20436;-80
2021/10/20 02:42:55;;;;;;;356.07;335.33;;;12.90;99.90;;;;;;5039269;28;20189;-80
2021/10/20 02:45:21;;;;;;;347.67;327.63;;;13.00;99.90;;;;;;5039288;28;20166;-80
2021/10/20 02:47:47;;;;;;;352.93;332.63;;;13.00;99.90;;;;;;5039165;28;20552;-80
2021/10/20 02:50:13;;;;;;;347.83;327.97;;;13.00;99.90;;;;;;5039807;28;20404;-80
2021/10/20 02:52:38;;;;;;;363.20;342.43;;;13.10;99.90;;;;;;5039042;28;20408;-80
2021/10/20 02:55:06;;;;;;;365.63;344.93;;;13.20;99.90;;;;;;5037499;28;20537;-80
2021/10/20 02:57:32;;;;;;;260.75;243.88;;;13.30;99.90;;;;;;5036710;28;20196;-80
2021/10/20 02:59:58;;;;;;;301.03;282.03;;;13.30;99.90;;;;;;5037163;28;20544;-80
2021/10/20 03:02:24;;;;;;;220.07;204.10;;;13.50;99.90;;;;;;5036406;28;20192;-80
2021/10/20 03:04:50;;;;;;;133.30;121.07;;;13.60;99.90;;;;;;5039233;28;20173;-80
2021/10/20 03:07:16;;;;;;;147.53;134.80;;;13.60;99.90;;;;;;5038706;28;20392;-80
2021/10/20 03:09:41;;;;;;;228.70;212.70;;;13.60;99.90;;;;;;5039173;28;20410;-80
2021/10/20 03:12:07;;;;;;;176.70;162.37;;;13.70;99.90;;;;;;5039150;28;20166;-80
2021/10/20 03:14:33;;;;;;;160.47;146.97;;;13.80;99.90;;;;;;5037052;28;20173;-80
2021/10/20 03:16:59;;;;;;;139.87;126.80;;;14.00;99.90;;;;;;5038513;28;20411;-80
2021/10/20 03:19:24;;;;;;;136.43;124.17;;;14.10;99.90;;;;;;5037863;28;20193;-80
2021/10/20 03:21:50;;;;;;;180.00;166.17;;;14.10;99.90;;;;;;5038077;28;20168;-80
2021/10/20 03:24:17;;;;;;;190.70;176.67;;;14.20;99.90;;;;;;5038284;28;20157;-80
2021/10/20 03:26:43;;;;;;;185.27;171.27;;;14.20;99.90;;;;;;4998185;28;1162215;-80
2021/10/20 03:29:08;;;;;;;188.57;174.37;;;14.20;99.90;;;;;;5039648;28;20239;-80
2021/10/20 03:31:34;;;;;;;165.53;152.23;;;14.30;99.90;;;;;;5038779;28;20625;-80
2021/10/20 03:34:00;;;;;;;184.47;170.57;;;14.30;99.90;;;;;;5039102;28;20223;-80
2021/10/20 03:36:25;;;;;;;169.20;155.80;;;14.30;99.90;;;;;;5038762;28;20640;-79
2021/10/20 03:38:51;;;;;;;190.53;176.43;;;14.30;99.90;;;;;;5037963;28;20192;-80
2021/10/20 03:41:17;;;;;;;173.40;159.63;;;14.30;99.90;;;;;;5038283;28;20168;-80
2021/10/20 03:43:46;;;;;;;135.63;123.33;;;14.30;99.90;;;;;;5037590;28;20899;-80
2021/10/20 03:46:11;;;;;;;177.17;163.47;;;14.30;99.90;;;;;;5038007;28;20432;-80
2021/10/20 03:48:37;;;;;;;125.73;113.83;;;14.30;99.90;;;;;;5037969;28;20435;-80
2021/10/20 03:51:03;;;;;;;117.83;106.03;;;14.30;99.90;;;;;;5039996;28;20161;-80
2021/10/20 03:53:29;;;;;;;115.07;103.50;;;14.40;99.90;;;;;;5039580;28;20591;-80
2021/10/20 03:55:54;;;;;;;94.50;78.43;;;14.50;99.90;;;;;;5038902;28;20423;-79
2021/10/20 03:58:22;;;;;;;93.17;74.50;;;14.40;99.90;;;;;;5035949;28;20197;-79
2021/10/20 04:00:48;;;;;;;84.93;48.13;;;14.50;99.90;;;;;;5039693;28;20532;-80
2021/10/20 04:03:14;;;;;;;85.73;47.17;;;14.50;99.90;;;;;;5039647;28;20482;-79
2021/10/20 04:05:40;;;;;;;77.20;27.10;;;14.50;99.90;;;;;;5038306;28;20423;-79
2021/10/20 04:08:05;;;;;;;75.50;24.97;;;14.50;99.90;;;;;;5038972;28;20432;-80
2021/10/20 04:10:31;;;;;;;77.40;27.60;;;14.50;99.90;;;;;;5037633;28;20193;-79
2021/10/20 04:12:57;;;;;;;76.27;26.77;;;14.40;99.90;;;;;;5038300;28;20173;-79
2021/10/20 04:15:25;;;;;;;77.23;25.10;;;14.40;99.90;;;;;;5039137;28;20528;-79
2021/10/20 04:17:52;;;;;;;75.40;23.87;;;14.40;99.90;;;;;;5038501;28;20189;-79
2021/10/20 04:20:20;;;;;;;78.57;26.73;;;14.40;99.90;;;;;;5038892;28;20499;-79
2021/10/20 04:22:48;;;;;;;80.00;32.07;;;14.40;99.90;;;;;;5036962;28;20918;-79
2021/10/20 04:25:14;;;;;;;82.50;40.47;;;14.40;99.90;;;;;;5036452;28;20408;-79
2021/10/20 04:27:41;;;;;;;79.17;29.57;;;14.40;99.90;;;;;;5039145;28;20452;-79
2021/10/20 04:30:08;;;;;;;77.63;27.17;;;14.40;99.90;;;;;;5039192;28;20410;-79
2021/10/20 04:32:34;;;;;;;77.50;28.13;;;14.40;99.90;;;;;;5038761;28;20404;-79
2021/10/20 04:35:00;;;;;;;76.47;27.57;;;14.40;99.90;;;;;;5039152;28;20439;-79
2021/10/20 04:37:29;;;;;;;78.27;26.73;;;14.40;99.90;;;;;;5038182;28;20935;-79
2021/10/20 04:39:59;;;;;;;78.20;26.57;;;14.40;99.90;;;;;;5038617;28;20405;-79
2021/10/20 04:42:26;;;;;;;77.80;29.60;;;14.40;99.90;;;;;;5037931;28;20823;-79
2021/10/20 04:44:53;;;;;;;79.67;33.57;;;14.50;99.90;;;;;;5036811;28;20396;-79
2021/10/20 04:47:19;;;;;;;76.90;28.17;;;14.50;99.90;;;;;;5038776;28;20408;-79
2021/10/20 04:49:45;;;;;;;80.63;37.23;;;14.60;99.90;;;;;;5038772;28;20911;-79
2021/10/20 04:52:11;;;;;;;80.47;36.10;;;14.60;99.90;;;;;;5039041;28;20421;-79
2021/10/20 04:54:37;;;;;;;83.60;41.90;;;14.70;99.90;;;;;;5040162;28;20438;-79
2021/10/20 04:57:03;;;;;;;83.70;45.07;;;14.70;99.90;;;;;;5039997;28;20400;-78
2021/10/20 04:59:31;;;;;;;77.33;28.67;;;14.80;99.90;;;;;;5036778;28;20973;-78
2021/10/20 05:01:58;;;;;;;78.97;29.43;;;14.90;99.90;;;;;;5039386;28;20411;-79
2021/10/20 05:04:24;;;;;;;77.47;26.50;;;14.90;99.90;;;;;;5038175;28;20412;-79
2021/10/20 05:06:49;;;;;;;80.80;34.77;;;14.90;99.90;;;;;;5038499;28;20426;-79
2021/10/20 05:09:15;;;;;;;78.80;31.47;;;14.90;99.90;;;;;;5037004;28;20457;-78
2021/10/20 05:11:41;;;;;;;78.70;29.30;;;14.90;99.90;;;;;;5036713;28;20170;-78
2021/10/20 05:14:06;;;;;;;82.27;34.67;;;14.90;99.90;;;;;;5039633;28;20166;-79
2021/10/20 05:16:32;;;;;;;80.67;32.87;;;15.00;99.90;;;;;;5039340;28;20161;-78
2021/10/20 05:18:58;;;;;;;80.00;32.70;;;15.00;99.90;;;;;;5039959;28;20228;-78
2021/10/20 05:21:23;;;;;;;77.47;29.50;;;15.00;99.90;;;;;;5040134;28;20248;-78
2021/10/20 05:23:50;;;;;;;77.90;28.20;;;15.00;99.90;;;;;;5037958;28;20165;-78
2021/10/20 05:26:17;;;;;;;80.40;32.47;;;15.10;99.90;;;;;;5037377;28;20307;-78
2021/10/20 05:28:43;;;;;;;76.53;29.93;;;15.10;99.90;;;;;;5037143;28;20427;-79
2021/10/20 05:31:09;;;;;;;75.63;25.40;;;15.10;99.90;;;;;;5036930;28;20421;-79
2021/10/20 05:33:34;;;;;;;79.97;31.17;;;15.10;99.90;;;;;;5037154;28;20204;-79
2021/10/20 05:36:00;;;;;;;77.57;28.03;;;15.10;99.90;;;;;;5036795;28;20181;-79
2021/10/20 05:38:26;;;;;;;77.10;25.53;;;15.10;99.90;;;;;;5036995;28;20275;-78
2021/10/20 05:40:51;;;;;;;75.77;26.33;;;15.10;99.90;;;;;;5035908;28;20633;-78
2021/10/20 05:43:19;;;;;;;81.40;26.50;;;15.10;99.90;;;;;;5038003;28;20165;-79
2021/10/20 05:45:47;;;;;;;78.17;29.57;;;15.00;99.90;;;;;;5040804;28;20180;-79
2021/10/20 05:48:15;;;;;;;76.20;25.80;;;15.00;99.90;;;;;;5039796;28;20442;-79
2021/10/20 05:50:43;;;;;;;76.97;27.43;;;15.10;99.90;;;;;;5040554;28;20405;-79
2021/10/20 05:53:09;;;;;;;75.83;24.43;;;15.00;99.90;;;;;;5039313;28;20435;-79
2021/10/20 05:55:36;;;;;;;78.60;30.80;;;15.00;99.90;;;;;;5039838;28;20404;-79
2021/10/20 05:58:05;;;;;;;75.87;26.93;;;15.00;99.90;;;;;;5039409;28;20208;-79
2021/10/20 06:00:30;;;;;;;78.50;30.80;;;14.90;99.90;;;;;;5039950;28;20487;-79
2021/10/20 06:02:56;;;;;;;76.00;25.97;;;15.00;99.90;;;;;;5040444;28;20431;-79
2021/10/20 06:05:24;;;;;;;79.33;35.20;;;15.00;99.90;;;;;;5040149;28;20169;-81
2021/10/20 06:07:50;;;;;;;78.63;28.13;;;15.00;99.90;;;;;;5039963;28;20185;-81
2021/10/20 06:10:16;;;;;;;77.97;29.53;;;14.90;99.90;;;;;;5040383;28;20432;-81
2021/10/20 06:12:42;;;;;;;79.40;31.03;;;15.00;99.90;;;;;;5039158;28;20413;-81
2021/10/20 06:15:08;;;;;;;79.27;30.37;;;15.00;99.90;;;;;;5042840;28;20450;-79
2021/10/20 06:17:35;;;;;;;76.00;25.10;;;15.00;99.90;;;;;;5044931;28;20438;-79
2021/10/20 06:20:02;;;;;;;81.30;30.53;;;15.00;99.90;;;;;;5043722;28;20406;-79
2021/10/20 06:22:28;;;;;;;77.77;29.07;;;15.00;99.90;;;;;;5044812;28;20395;-79
2021/10/20 06:24:54;;;;;;;79.40;29.23;;;15.10;99.90;;;;;;5044724;28;20405;-79
2021/10/20 06:27:19;;;;;;;79.37;27.27;;;15.00;99.90;;;;;;5111164;22;20213;-81
2021/10/20 06:29:45;;;;;;;77.13;26.33;;;15.00;99.90;;;;;;5039271;28;20169;-81
2021/10/20 06:32:11;;;;;;;76.47;26.63;;;15.00;99.90;;;;;;5038530;28;20560;-81
2021/10/20 06:34:36;;;;;;;76.70;29.40;;;15.00;99.90;;;;;;5039337;28;20166;-81
2021/10/20 06:37:03;;;;;;;76.77;29.17;;;15.00;99.90;;;;;;5037958;28;20215;-81
2021/10/20 06:39:29;;;;;;;78.77;30.53;;;15.10;99.90;;;;;;5038730;28;20206;-81
2021/10/20 06:41:54;;;;;;;78.90;25.37;;;15.10;99.90;;;;;;5038134;28;20408;-81
2021/10/20 06:44:20;;;;;;;79.43;26.77;;;15.10;99.90;;;;;;5039741;28;20432;-81
2021/10/20 06:46:47;;;;;;;75.23;24.27;;;15.00;99.90;;;;;;5039275;28;20162;-81
2021/10/20 06:49:14;;;;;;;77.83;23.40;;;15.00;99.90;;;;;;5048641;28;20245;-81
2021/10/20 06:51:40;;;;;;;74.07;22.57;;;15.00;99.90;;;;;;5044252;28;20416;-81
2021/10/20 06:54:05;;;;;;;75.87;25.10;;;15.00;99.90;;;;;;5039075;28;20384;-80
2021/10/20 06:56:31;;;;;;;76.80;22.43;;;14.90;99.90;;;;;;5038434;28;20484;-80
2021/10/20 06:58:57;;;;;;;75.07;22.50;;;14.90;99.90;;;;;;5037835;28;20209;-81
2021/10/20 07:01:23;;;;;;;75.20;22.90;;;14.90;99.90;;;;;;5037862;28;20404;-81
2021/10/20 07:03:49;;;;;;;78.67;26.13;;;15.00;99.90;;;;;;5038792;28;20157;-80
2021/10/20 07:06:14;;;;;;;78.60;31.10;;;15.00;99.90;;;;;;5036759;28;20192;-82
2021/10/20 07:08:40;;;;;;;79.40;33.57;;;15.10;99.90;;;;;;5037234;28;20425;-81
2021/10/20 07:11:06;;;;;;;79.30;34.13;;;15.10;99.90;;;;;;5036991;28;20319;-81
2021/10/20 07:13:32;;;;;;;77.20;26.37;;;15.10;99.90;;;;;;5038792;28;20665;-81
2021/10/20 07:15:58;;;;;;;74.57;22.07;;;15.20;99.90;;;;;;5038359;28;20165;-81
2021/10/20 07:18:27;;;;;;;84.17;36.77;;;15.20;99.90;;;;;;5038125;28;20524;-81
2021/10/20 07:20:54;;;;;;;80.50;31.10;;;15.10;99.90;;;;;;5038212;28;20463;-81
2021/10/20 07:23:19;;;;;;;82.17;38.33;;;15.10;99.90;;;;;;5036808;28;20420;-81
2021/10/20 07:25:45;;;;;;;83.20;31.53;;;15.20;99.90;;;;;;5036893;28;20401;-81
2021/10/20 07:28:11;;;;;;;77.57;30.00;;;15.30;99.90;;;;;;5037399;28;20199;-81
2021/10/20 07:30:37;;;;;;;80.30;32.23;;;15.30;99.90;;;;;;5037738;28;20169;-80
2021/10/20 07:33:04;;;;;;;81.83;34.63;;;15.40;99.90;;;;;;5037605;28;20166;-80
2021/10/20 07:35:30;;;;;;;77.87;29.10;;;15.50;99.90;;;;;;5038322;28;20833;-81
2021/10/20 07:37:55;;;;;;;78.97;30.27;;;15.60;99.90;;;;;;5037444;28;20492;-81
2021/10/20 07:40:38;;;;;;;79.80;33.90;;;15.60;99.90;;;;;;5105313;22;20437;-82
2021/10/20 07:43:06;;;;;;;80.27;31.40;;;15.60;99.90;;;;;;5100859;22;20495;-82
2021/10/20 07:45:32;;;;;;;77.27;26.73;;;15.60;99.90;;;;;;5037792;28;20406;-82
2021/10/20 07:48:01;;;;;;;83.20;29.13;;;15.60;99.90;;;;;;5103985;22;20488;-82
2021/10/20 07:50:30;;;;;;;77.27;28.77;;;15.60;99.90;;;;;;5038159;28;20403;-82
2021/10/20 07:52:58;;;;;;;75.20;23.33;;;15.70;99.90;;;;;;5035768;28;20409;-82
2021/10/20 07:55:25;;;;;;;82.03;22.53;;;15.70;99.90;;;;;;5036842;28;20416;-81
2021/10/20 07:58:00;;;;;;;77.27;24.87;;;15.70;99.90;;;;;;5035442;28;20485;-81
2021/10/20 08:00:27;;;;;;;75.93;27.23;;;15.70;99.90;;;;;;5035573;28;20413;-79
2021/10/20 08:03:02;;;;;;;78.20;26.80;;;15.70;99.90;;;;;;5036983;28;20401;-81
2021/10/20 08:05:28;;;;;;;76.77;25.77;;;15.80;99.90;;;;;;5037012;28;20728;-82
2021/10/20 08:07:54;;;;;;;77.63;29.60;;;15.80;99.90;;;;;;5036817;28;20447;-81
2021/10/20 08:10:23;;;;;;;81.00;40.00;;;15.80;99.90;;;;;;5037579;28;20401;-82
2021/10/20 08:12:50;;;;;;;81.50;41.83;;;15.80;99.90;;;;;;5037476;28;20181;-82
2021/10/20 08:15:16;;;;;;;78.93;34.80;;;15.80;99.90;;;;;;5037610;28;20552;-81
2021/10/20 08:17:43;;;;;;;85.33;49.60;;;15.80;99.90;;;;;;5038198;28;20812;-81
2021/10/20 08:20:11;;;;;;;78.90;30.63;;;15.80;99.90;;;;;;5037662;28;20398;-81
2021/10/20 08:22:37;;;;;;;81.10;38.30;;;15.80;99.90;;;;;;5037906;28;20436;-81
2021/10/20 08:25:05;;;;;;;78.53;32.33;;;15.80;99.90;;;;;;5036422;28;20509;-81
2021/10/20 08:27:31;;;;;;;75.93;25.00;;;15.80;99.90;;;;;;5037640;28;20544;-81
2021/10/20 08:29:57;;;;;;;75.30;24.07;;;15.70;99.90;;;;;;5036472;28;20423;-81
2021/10/20 08:32:22;;;;;;;76.63;22.27;;;15.70;99.90;;;;;;5035848;28;20165;-81
2021/10/20 08:34:50;;;;;;;76.23;25.70;;;15.70;99.90;;;;;;5037473;28;20163;-81
2021/10/20 08:37:16;;;;;;;80.63;37.30;;;15.70;99.90;;;;;;5036316;28;20162;-81
2021/10/20 08:39:42;;;;;;;76.13;28.30;;;15.80;99.90;;;;;;5037378;28;20448;-81
2021/10/20 08:42:08;;;;;;;78.77;30.20;;;15.80;99.90;;;;;;5037192;28;20401;-81
2021/10/20 08:44:33;;;;;;;75.63;27.00;;;15.80;99.90;;;;;;5037211;28;20170;-81
2021/10/20 08:46:59;;;;;;;76.97;28.97;;;15.80;99.90;;;;;;5035727;28;20277;-81
2021/10/20 08:49:26;;;;;;;84.43;46.47;;;15.90;99.90;;;;;;5036810;28;20269;-81
2021/10/20 08:51:52;;;;;;;76.10;25.63;;;16.00;99.90;;;;;;5037429;28;20400;-82
2021/10/20 08:54:18;;;;;;;81.80;43.20;;;16.00;99.90;;;;;;5037954;28;20832;-81
2021/10/20 08:56:45;;;;;;;86.87;57.67;;;16.00;99.90;;;;;;5035629;28;20422;-81
2021/10/20 08:59:11;;;;;;;86.17;56.63;;;16.00;99.90;;;;;;5037329;28;20983;-81
2021/10/20 09:01:38;;;;;;;86.20;56.33;;;16.00;99.90;;;;;;5036822;28;20413;-81
2021/10/20 09:04:08;;;;;;;94.33;63.87;;;16.10;99.90;;;;;;5037224;28;20407;-81
2021/10/20 09:06:35;;;;;;;99.77;88.53;;;16.10;99.90;;;;;;5036351;28;20405;-81
2021/10/20 09:09:04;;;;;;;102.97;84.50;;;16.20;99.90;;;;;;5035248;28;20887;-81
2021/10/20 09:11:33;;;;;;;90.30;67.00;;;16.20;99.90;;;;;;5037150;28;20878;-81
2021/10/20 09:14:05;;;;;;;100.23;83.30;;;16.20;99.90;;;;;;5037263;28;20387;-81
2021/10/20 09:16:35;;;;;;;98.63;86.23;;;16.30;99.90;;;;;;5036345;28;20415;-81
2021/10/20 09:19:18;;;;;;;115.33;103.93;;;16.30;99.90;;;;;;5036790;28;20445;-81
2021/10/20 09:22:04;;;;;;;118.80;107.37;;;16.30;99.90;;;;;;5034961;28;20410;-82
2021/10/20 09:24:41;;;;;;;94.87;82.83;;;16.40;99.90;;;;;;5035177;28;20793;-82
2021/10/20 09:27:26;;;;;;;98.87;85.23;;;16.40;99.90;;;;;;5036402;28;20442;-81
2021/10/20 09:30:12;;;;;;;105.67;94.67;;;16.50;99.90;;;;;;5034796;28;20440;-82
2021/10/20 09:32:38;;;;;;;92.77;79.47;;;16.50;99.90;;;;;;5036207;28;20806;-81
2021/10/20 09:35:04;;;;;;;110.23;99.17;;;16.50;99.90;;;;;;5036321;28;20429;-82
2021/10/20 09:37:30;;;;;;;119.83;108.33;;;16.60;99.90;;;;;;5040216;23;20502;-81
2021/10/20 09:40:14;;;;;;;96.90;86.33;;;16.60;99.90;;;;;;5035743;28;20492;-82
2021/10/20 09:42:57;;;;;;;105.40;94.43;;;16.60;99.90;;;;;;5037526;28;20608;-82
2021/10/20 09:45:23;;;;;;;109.30;98.20;;;16.60;99.90;;;;;;5036996;28;20411;-82
2021/10/20 09:47:52;;;;;;;121.50;109.90;;;16.60;99.90;;;;;;5037368;28;21080;-82
2021/10/20 09:50:26;;;;;;;128.10;116.27;;;16.70;99.90;;;;;;5040769;28;20406;-82
2021/10/20 09:53:01;;;;;;;130.20;118.30;;;16.80;99.90;;;;;;5041391;28;20472;-83
2021/10/20 09:55:31;;;;;;;134.10;121.53;;;16.80;99.90;;;;;;5041491;28;20379;-82
2021/10/20 09:58:33;;;;;;;123.07;111.43;;;16.90;99.90;;;;;;5040515;28;20569;-82
2021/10/20 10:01:00;;;;;;;119.03;107.57;;;16.90;99.90;;;;;;5038948;28;20426;-81
2021/10/20 10:03:26;;;;;;;119.97;108.43;;;16.90;99.90;;;;;;5039737;28;20398;-81
2021/10/20 10:05:52;;;;;;;118.13;106.67;;;17.00;99.90;;;;;;5039397;28;20402;-80
2021/10/20 10:08:17;;;;;;;121.70;110.00;;;17.00;99.90;;;;;;5039133;28;20475;-81
2021/10/20 10:10:44;;;;;;;124.53;112.80;;;17.00;99.90;;;;;;5038368;28;20404;-77
2021/10/20 10:13:14;;;;;;;119.33;107.67;;;17.00;99.90;;;;;;5038535;28;20249;-81
2021/10/20 10:15:41;;;;;;;118.60;106.87;;;17.00;99.90;;;;;;5038311;28;20411;-81
2021/10/20 10:18:10;;;;;;;120.53;108.83;;;17.00;99.90;;;;;;5039052;28;20500;-81
2021/10/20 10:20:43;;;;;;;115.50;103.90;;;16.90;99.90;;;;;;5020882;28;20430;-82
2021/10/20 10:23:18;;;;;;;99.13;85.80;;;16.90;99.90;;;;;;5038147;28;20402;-81
2021/10/20 10:25:43;;;;;;;110.67;99.53;;;16.90;99.90;;;;;;5038451;28;20410;-82
2021/10/20 10:28:30;;;;;;;93.23;76.00;;;16.90;99.90;;;;;;5036872;28;20955;-79
2021/10/20 10:31:10;;;;;;;85.77;55.63;;;16.70;99.90;;;;;;5038322;28;20227;-80
2021/10/20 10:33:51;;;;;;;80.00;31.30;;;16.70;99.90;;;;;;5037089;28;20396;-80
2021/10/20 10:36:23;;;;;;;77.70;24.90;;;16.70;99.90;;;;;;5037459;28;20398;-80
2021/10/20 10:38:59;;;;;;;81.20;29.17;;;16.70;99.90;;;;;;5037043;28;20466;-80
2021/10/20 10:41:48;;;;;;;78.77;26.10;;;16.80;99.90;;;;;;5037653;28;20381;-80
2021/10/20 10:44:25;;;;;;;77.20;28.53;;;16.90;99.90;;;;;;5035952;28;20421;-79
2021/10/20 10:47:16;;;;;;;75.30;25.17;;;16.90;99.90;;;;;;5036364;28;20475;-79
2021/10/20 10:49:53;;;;;;;80.93;32.90;;;17.00;99.90;;;;;;5039187;28;20400;-81
2021/10/20 10:52:33;;;;;;;79.50;29.53;;;17.10;99.90;;;;;;5038309;28;20384;-82
2021/10/20 10:55:14;;;;;;;77.07;29.17;;;17.20;99.90;;;;;;5039049;28;20426;-81
2021/10/20 10:57:53;;;;;;;77.57;29.10;;;17.30;99.90;;;;;;5038673;28;20415;-81
2021/10/20 11:00:18;;;;;;;76.20;24.17;;;17.40;99.90;;;;;;5037820;28;20372;-80
2021/10/20 11:02:48;;;;;;;78.80;28.60;;;17.50;99.90;;;;;;5036998;28;20441;-82
2021/10/20 11:05:16;;;;;;;81.30;35.80;;;17.50;99.90;;;;;;5036697;28;20236;-82
2021/10/20 11:07:47;;;;;;;79.90;35.00;;;17.60;99.90;;;;;;5038219;28;20792;-82
2021/10/20 11:10:14;;;;;;;88.00;54.87;;;17.50;99.90;;;;;;5037250;28;20411;-81
2021/10/20 11:12:40;;;;;;;78.00;31.63;;;17.60;99.90;;;;;;5038920;28;20407;-82
2021/10/20 11:15:10;;;;;;;81.30;38.20;;;17.50;99.90;;;;;;5038409;28;20406;-82
2021/10/20 11:17:36;;;;;;;75.83;24.63;;;17.40;99.90;;;;;;5036911;28;20231;-82
2021/10/20 11:20:10;;;;;;;81.63;28.23;;;17.40;99.90;;;;;;5038423;28;20432;-82
2021/10/20 11:22:37;;;;;;;75.03;21.63;;;17.30;99.90;;;;;;5037386;28;20499;-81
2021/10/20 11:25:07;;;;;;;78.03;28.07;;;17.30;99.90;;;;;;5039435;28;20403;-82
2021/10/20 11:27:34;;;;;;;78.30;27.60;;;17.30;99.90;;;;;;5038721;28;20423;-81
2021/10/20 11:30:00;;;;;;;77.50;23.57;;;17.30;99.90;;;;;;5037645;28;20412;-81
2021/10/20 11:32:26;;;;;;;77.83;27.23;;;17.30;99.90;;;;;;5038704;28;20431;-82
2021/10/20 11:34:54;;;;;;;76.87;27.27;;;17.30;99.90;;;;;;5036670;28;20415;-81
2021/10/20 11:37:23;;;;;;;76.20;24.97;;;17.30;99.90;;;;;;5038021;28;20158;-81
2021/10/20 11:39:55;;;;;;;80.17;34.43;;;17.40;99.90;;;;;;5037661;28;20450;-82
2021/10/20 11:42:21;;;;;;;79.93;33.70;;;17.40;99.90;;;;;;5037993;28;20430;-82
2021/10/20 11:44:48;;;;;;;76.70;24.67;;;17.50;99.90;;;;;;5037804;28;20400;-82
2021/10/20 11:47:15;;;;;;;75.50;24.47;;;17.50;99.90;;;;;;5037596;28;20729;-81
2021/10/20 11:49:52;;;;;;;76.90;27.40;;;17.50;99.90;;;;;;5037958;28;20927;-81
2021/10/20 11:52:20;;;;;;;83.67;43.27;;;17.60;99.90;;;;;;5036099;28;20997;-81
2021/10/20 11:54:46;;;;;;;83.03;35.97;;;17.70;99.90;;;;;;5037234;28;20461;-82
2021/10/20 11:57:16;;;;;;;83.87;49.80;;;17.70;99.90;;;;;;5036836;28;20474;-81
2021/10/20 11:59:41;;;;;;;89.50;52.57;;;17.80;99.90;;;;;;5038018;28;20444;-82
2021/10/20 12:02:08;;;;;;;78.20;26.53;;;17.80;99.90;;;;;;5035970;28;20466;-81
2021/10/20 12:04:37;;;;;;;80.13;31.07;;;17.80;99.90;;;;;;5037283;28;20157;-82
2021/10/20 12:07:04;;;;;;;79.07;35.47;;;17.80;99.90;;;;;;5037421;28;20729;-81
2021/10/20 12:09:37;;;;;;;75.43;23.90;;;17.90;99.90;;;;;;5035205;28;20482;-81
2021/10/20 12:12:05;;;;;;;74.80;23.77;;;17.90;99.90;;;;;;5036568;28;20415;-81
2021/10/20 12:14:39;;;;;;;79.77;37.80;;;17.90;99.90;;;;;;5035026;28;20491;-81
2021/10/20 12:17:07;;;;;;;85.50;52.33;;;18.00;99.90;;;;;;5035495;28;20432;-81
2021/10/20 12:19:36;;;;;;;77.20;27.73;;;18.00;99.90;;;;;;5036570;28;20970;-81
2021/10/20 12:22:08;;;;;;;81.87;35.50;;;17.90;99.90;;;;;;5036501;28;20401;-81